Time;durP1;ratioP1;P1;durP2;ratioP2;P2;SDS_P1;SDS_P2;PMS_P1;PMS_P2;Temp;Humidity;BMP_temperature;BMP_pressure;BME280_temperature;BME280_humidity;BME280_pressure;Samples;Min_cycle;Max_cycle;Signal;HPM_P1;HPM_P2
2021/10/21 00:02:01;;;;;;;3.80;3.33;;;17.70;99.90;;;;;;4998902;28;20487;-47
2021/10/21 00:04:28;;;;;;;4.20;2.97;;;17.70;99.90;;;;;;4999293;28;20930;-49
2021/10/21 00:06:55;;;;;;;3.33;2.73;;;17.70;99.90;;;;;;4999002;28;20422;-50
2021/10/21 00:09:25;;;;;;;4.23;3.10;;;17.70;99.90;;;;;;4998475;28;20475;-49
2021/10/21 00:11:58;;;;;;;3.50;3.17;;;17.60;99.90;;;;;;4998299;28;20470;-47
2021/10/21 00:14:25;;;;;;;4.23;3.20;;;17.70;99.90;;;;;;4998736;28;20462;-49
2021/10/21 00:16:52;;;;;;;3.33;2.77;;;17.70;99.90;;;;;;4998170;28;20470;-51
2021/10/21 00:19:18;;;;;;;2.67;2.47;;;17.70;99.90;;;;;;4998425;28;20423;-50
2021/10/21 00:21:48;;;;;;;4.10;3.57;;;17.70;99.90;;;;;;4997839;28;20443;-48
2021/10/21 00:24:17;;;;;;;5.50;3.40;;;17.70;99.90;;;;;;4998222;28;20463;-47
2021/10/21 00:26:45;;;;;;;4.70;3.10;;;17.60;99.90;;;;;;4998011;28;20455;-50
2021/10/21 00:29:12;;;;;;;3.80;3.30;;;17.60;99.90;;;;;;4998583;28;20475;-51
2021/10/21 00:31:39;;;;;;;3.37;3.07;;;17.60;99.90;;;;;;4998549;28;20482;-49
2021/10/21 00:34:07;;;;;;;3.40;2.70;;;17.60;99.90;;;;;;4998439;28;20471;-49
2021/10/21 00:36:36;;;;;;;6.70;3.30;;;17.60;99.90;;;;;;4998099;28;20479;-52
2021/10/21 00:39:03;;;;;;;4.13;3.17;;;17.60;99.90;;;;;;4998010;28;20467;-52
2021/10/21 00:41:30;;;;;;;6.67;3.00;;;17.60;99.90;;;;;;4997818;28;20474;-47
2021/10/21 00:44:07;;;;;;;3.57;3.27;;;17.50;99.90;;;;;;4997692;28;20502;-52
2021/10/21 00:46:34;;;;;;;3.47;3.17;;;17.50;99.90;;;;;;4997802;28;20423;-51
2021/10/21 00:49:01;;;;;;;3.63;3.10;;;17.50;99.90;;;;;;4997517;28;20505;-46
2021/10/21 00:51:30;;;;;;;6.80;3.50;;;17.50;99.90;;;;;;4997926;28;20494;-49
2021/10/21 00:53:57;;;;;;;3.47;2.80;;;17.50;99.90;;;;;;4998229;28;20462;-50
2021/10/21 00:56:27;;;;;;;5.17;3.60;;;17.50;99.90;;;;;;4998203;28;20467;-47
2021/10/21 00:58:54;;;;;;;3.77;3.13;;;17.50;99.90;;;;;;4998055;28;20501;-46
2021/10/21 01:01:22;;;;;;;4.40;2.57;;;17.50;99.90;;;;;;4997923;28;20450;-47
2021/10/21 01:03:50;;;;;;;4.40;3.10;;;17.50;99.90;;;;;;4998329;28;20470;-47
2021/10/21 01:06:18;;;;;;;3.20;2.90;;;17.50;99.90;;;;;;4998442;28;20439;-48
2021/10/21 01:08:45;;;;;;;4.43;3.40;;;17.40;99.90;;;;;;4997772;28;20463;-48
2021/10/21 01:11:14;;;;;;;2.83;2.50;;;17.40;99.90;;;;;;4997480;28;20486;-47
2021/10/21 01:13:40;;;;;;;3.47;2.97;;;17.40;99.90;;;;;;4998163;28;20497;-48
2021/10/21 01:16:10;;;;;;;3.77;3.03;;;17.40;99.90;;;;;;4997916;28;20454;-46
2021/10/21 01:18:38;;;;;;;5.47;2.87;;;17.40;99.90;;;;;;4997720;28;20459;-47
2021/10/21 01:21:07;;;;;;;4.73;2.87;;;17.40;99.90;;;;;;4997911;28;20459;-51
2021/10/21 01:23:35;;;;;;;3.83;3.30;;;17.40;99.90;;;;;;4997789;28;20474;-51
2021/10/21 01:26:03;;;;;;;5.43;3.10;;;17.40;99.90;;;;;;4997989;28;20466;-47
2021/10/21 01:28:29;;;;;;;3.47;3.17;;;17.40;99.90;;;;;;4996810;28;20503;-45
2021/10/21 01:30:56;;;;;;;8.90;3.70;;;17.40;99.90;;;;;;4997398;28;20423;-47
2021/10/21 01:33:23;;;;;;;3.10;2.60;;;17.40;99.90;;;;;;4996793;28;20761;-43
2021/10/21 01:35:57;;;;;;;5.57;3.17;;;17.30;99.90;;;;;;4997378;28;20438;-46
2021/10/21 01:38:25;;;;;;;6.30;3.97;;;17.30;99.90;;;;;;4996740;28;20467;-44
2021/10/21 01:40:52;;;;;;;8.83;2.80;;;17.30;99.90;;;;;;4997615;28;20455;-46
2021/10/21 01:43:19;;;;;;;6.10;3.10;;;17.30;99.90;;;;;;4997332;28;20498;-47
2021/10/21 01:45:46;;;;;;;7.20;3.20;;;17.30;99.90;;;;;;4996850;28;20443;-48
2021/10/21 01:48:12;;;;;;;5.47;3.40;;;17.30;99.90;;;;;;4996968;28;20447;-45
2021/10/21 01:50:39;;;;;;;3.97;2.80;;;17.40;99.90;;;;;;4997140;28;20462;-44
2021/10/21 01:53:06;;;;;;;4.17;2.90;;;17.40;99.90;;;;;;4997534;28;20470;-50
2021/10/21 01:55:34;;;;;;;3.23;2.63;;;17.40;99.90;;;;;;4997267;28;20442;-47
2021/10/21 01:58:02;;;;;;;4.70;3.20;;;17.40;99.90;;;;;;4997519;28;20486;-50
2021/10/21 02:00:29;;;;;;;3.43;2.23;;;17.40;99.90;;;;;;4996942;28;20459;-46
2021/10/21 02:02:57;;;;;;;3.20;2.90;;;17.40;99.90;;;;;;4997233;28;20447;-49
2021/10/21 02:05:23;;;;;;;3.40;2.90;;;17.50;99.90;;;;;;4997550;28;20446;-48
2021/10/21 02:07:52;;;;;;;2.97;2.20;;;17.50;99.90;;;;;;4997601;28;20462;-48
2021/10/21 02:10:21;;;;;;;2.50;2.27;;;17.50;99.90;;;;;;4997378;28;20462;-52
2021/10/21 02:12:49;;;;;;;4.03;2.23;;;17.50;99.90;;;;;;4997662;28;20427;-50
2021/10/21 02:15:18;;;;;;;2.47;2.27;;;17.50;99.90;;;;;;4997078;28;20514;-48
2021/10/21 02:17:46;;;;;;;2.97;2.60;;;17.50;99.90;;;;;;4997097;28;20467;-52
2021/10/21 02:20:14;;;;;;;2.73;2.53;;;17.50;99.90;;;;;;4997107;28;20503;-44
2021/10/21 02:22:41;;;;;;;2.43;1.90;;;17.60;99.90;;;;;;4997282;28;20459;-48
2021/10/21 02:25:09;;;;;;;2.90;2.20;;;17.60;99.90;;;;;;4997383;28;20510;-47
2021/10/21 02:27:35;;;;;;;3.43;2.70;;;17.60;99.90;;;;;;4997432;28;20439;-52
2021/10/21 02:30:04;;;;;;;2.73;1.87;;;17.60;99.90;;;;;;4997474;28;20466;-49
2021/10/21 02:32:31;;;;;;;3.63;1.90;;;17.50;99.90;;;;;;4997491;28;20431;-46
2021/10/21 02:34:58;;;;;;;3.87;2.30;;;17.50;99.90;;;;;;4997284;28;20451;-47
2021/10/21 02:37:24;;;;;;;2.03;1.83;;;17.50;99.90;;;;;;4997208;28;20467;-53
2021/10/21 02:39:51;;;;;;;2.90;2.03;;;17.50;99.90;;;;;;5000147;28;20463;-46
2021/10/21 02:42:18;;;;;;;2.27;2.07;;;17.40;99.90;;;;;;5001030;28;20427;-57
2021/10/21 02:44:44;;;;;;;5.67;1.80;;;17.40;99.90;;;;;;5000759;28;20471;-49
2021/10/21 02:47:12;;;;;;;3.10;1.87;;;17.40;99.90;;;;;;5001256;28;20438;-54
2021/10/21 02:49:39;;;;;;;2.53;1.70;;;17.40;99.90;;;;;;5001077;28;20471;-55
2021/10/21 02:52:06;;;;;;;2.60;1.77;;;17.50;99.90;;;;;;5000923;28;20514;-45
2021/10/21 02:54:33;;;;;;;2.07;1.87;;;17.50;99.90;;;;;;5001001;28;20458;-44
2021/10/21 02:57:03;;;;;;;2.17;1.93;;;17.50;99.90;;;;;;5001197;28;20434;-44
2021/10/21 02:59:29;;;;;;;1.90;1.60;;;17.50;99.90;;;;;;5000189;28;20491;-43
2021/10/21 03:01:58;;;;;;;3.00;1.87;;;17.50;99.90;;;;;;5000810;28;20426;-45
2021/10/21 03:04:26;;;;;;;2.40;1.57;;;17.50;99.90;;;;;;5000229;28;20486;-45
2021/10/21 03:06:53;;;;;;;1.97;1.77;;;17.40;99.90;;;;;;5000317;28;20455;-44
2021/10/21 03:09:19;;;;;;;2.73;2.00;;;17.50;99.90;;;;;;4999742;28;20430;-44
2021/10/21 03:11:46;;;;;;;2.40;1.80;;;17.40;99.90;;;;;;5000025;28;20454;-44
2021/10/21 03:14:12;;;;;;;3.63;1.73;;;17.40;99.90;;;;;;5000175;28;20455;-46
2021/10/21 03:16:39;;;;;;;1.63;1.53;;;17.40;99.90;;;;;;5000514;28;20487;-48
2021/10/21 03:19:08;;;;;;;2.07;1.83;;;17.40;99.90;;;;;;5000086;28;20482;-45
2021/10/21 03:21:38;;;;;;;2.27;1.73;;;17.40;99.90;;;;;;4999731;28;20442;-50
2021/10/21 03:24:05;;;;;;;2.70;1.83;;;17.40;99.90;;;;;;4999863;28;20465;-46
2021/10/21 03:26:32;;;;;;;2.53;1.93;;;17.40;99.90;;;;;;5000017;28;20434;-50
2021/10/21 03:28:58;;;;;;;4.20;1.80;;;17.40;99.90;;;;;;4999307;28;20423;-47
2021/10/21 03:31:29;;;;;;;2.10;1.80;;;17.40;99.90;;;;;;4999867;28;20442;-47
2021/10/21 03:33:55;;;;;;;2.50;2.30;;;17.40;99.90;;;;;;4999815;28;20518;-49
2021/10/21 03:36:22;;;;;;;2.03;1.83;;;17.30;99.90;;;;;;4999937;28;20660;-52
2021/10/21 03:38:50;;;;;;;2.10;1.60;;;17.40;99.90;;;;;;4999717;28;20506;-45
2021/10/21 03:41:17;;;;;;;3.20;2.00;;;17.40;99.90;;;;;;4999412;28;20467;-46
2021/10/21 03:43:46;;;;;;;2.10;1.60;;;17.30;99.90;;;;;;4999598;28;20497;-50
2021/10/21 03:46:19;;;;;;;2.07;1.87;;;17.30;99.90;;;;;;4999598;28;20471;-45
2021/10/21 03:48:46;;;;;;;2.50;1.57;;;17.30;99.90;;;;;;4999798;28;20423;-48
2021/10/21 03:51:13;;;;;;;5.70;2.07;;;17.40;99.90;;;;;;4998464;28;20478;-46
2021/10/21 03:53:40;;;;;;;1.80;1.50;;;17.30;99.90;;;;;;4999766;28;20446;-44
2021/10/21 03:56:09;;;;;;;1.90;1.60;;;17.30;99.90;;;;;;4999247;28;20470;-48
2021/10/21 03:58:37;;;;;;;1.80;1.60;;;17.30;99.90;;;;;;4998951;28;20482;-47
2021/10/21 04:01:06;;;;;;;2.00;1.80;;;17.40;99.90;;;;;;4998858;28;20467;-45
2021/10/21 04:03:32;;;;;;;2.80;1.80;;;17.40;99.90;;;;;;4998805;28;20479;-45
2021/10/21 04:06:01;;;;;;;2.73;1.77;;;17.40;99.90;;;;;;4998949;28;20482;-45
2021/10/21 04:08:29;;;;;;;1.70;1.43;;;17.40;99.90;;;;;;4999265;28;20448;-50
2021/10/21 04:10:58;;;;;;;1.80;1.30;;;17.40;99.90;;;;;;4998686;28;20513;-48
2021/10/21 04:13:26;;;;;;;2.80;1.60;;;17.50;99.90;;;;;;4999465;28;20427;-51
2021/10/21 04:15:53;;;;;;;1.77;1.43;;;17.50;99.90;;;;;;4998540;28;20463;-57
2021/10/21 04:18:21;;;;;;;1.57;1.37;;;17.50;99.90;;;;;;4998784;28;20495;-46
2021/10/21 04:20:49;;;;;;;3.03;1.33;;;17.40;99.90;;;;;;4998848;28;20496;-45
2021/10/21 04:23:18;;;;;;;1.67;1.30;;;17.20;99.90;;;;;;4999055;28;20466;-47
2021/10/21 04:25:44;;;;;;;1.60;1.27;;;17.10;99.90;;;;;;4999068;28;20478;-49
2021/10/21 04:28:11;;;;;;;2.57;1.70;;;16.80;99.90;;;;;;4998781;28;21133;-46
2021/10/21 04:30:40;;;;;;;1.60;1.50;;;16.50;99.90;;;;;;4999300;28;20453;-42
2021/10/21 04:33:07;;;;;;;1.40;1.10;;;16.20;99.90;;;;;;4998769;28;20459;-47
2021/10/21 04:35:34;;;;;;;1.63;1.40;;;16.00;99.90;;;;;;4998864;28;20455;-51
2021/10/21 04:38:05;;;;;;;1.53;1.10;;;15.90;99.90;;;;;;4998621;28;20482;-50
2021/10/21 04:40:31;;;;;;;3.00;1.40;;;15.70;99.90;;;;;;4998787;28;20473;-48
2021/10/21 04:43:03;;;;;;;1.40;1.20;;;15.60;99.90;;;;;;4998826;28;20454;-45
2021/10/21 04:45:29;;;;;;;1.87;1.17;;;15.40;99.90;;;;;;4998223;28;20518;-43
2021/10/21 04:47:57;;;;;;;1.80;1.13;;;15.30;99.90;;;;;;4998339;28;20450;-44
2021/10/21 04:50:24;;;;;;;2.10;1.40;;;15.30;99.90;;;;;;4998750;28;20470;-45
2021/10/21 04:52:52;;;;;;;2.37;1.30;;;15.30;99.90;;;;;;4998630;28;20423;-45
2021/10/21 04:55:20;;;;;;;1.73;1.23;;;15.30;99.90;;;;;;4998105;28;20502;-47
2021/10/21 04:57:49;;;;;;;3.73;1.00;;;15.20;99.90;;;;;;4998217;28;20517;-47
2021/10/21 05:00:18;;;;;;;1.47;1.13;;;15.30;99.90;;;;;;4998454;28;20502;-46
2021/10/21 05:02:46;;;;;;;1.80;1.23;;;15.30;99.90;;;;;;4997468;28;20478;-47
2021/10/21 05:05:14;;;;;;;3.03;1.37;;;15.30;99.90;;;;;;4998198;28;20446;-49
2021/10/21 05:07:41;;;;;;;1.30;1.00;;;15.20;99.90;;;;;;4998320;28;20463;-45
2021/10/21 05:10:08;;;;;;;2.33;1.20;;;15.20;99.90;;;;;;4998026;28;20450;-42
2021/10/21 05:12:35;;;;;;;2.27;1.33;;;15.20;99.90;;;;;;4998228;28;20454;-43
2021/10/21 05:15:02;;;;;;;2.57;1.23;;;15.30;99.90;;;;;;4998066;28;20457;-48
2021/10/21 05:17:28;;;;;;;2.17;1.40;;;15.30;99.90;;;;;;4998653;28;20447;-51
2021/10/21 05:19:55;;;;;;;1.33;1.03;;;15.30;99.90;;;;;;4997737;28;20455;-48
2021/10/21 05:22:23;;;;;;;1.50;1.07;;;15.30;99.90;;;;;;4997314;28;20447;-49
2021/10/21 05:24:51;;;;;;;2.20;1.60;;;15.30;99.90;;;;;;4998287;28;20450;-45
2021/10/21 05:27:18;;;;;;;2.73;1.20;;;15.30;99.90;;;;;;4997380;28;20451;-49
2021/10/21 05:29:45;;;;;;;4.00;1.70;;;15.40;99.90;;;;;;4997849;28;20446;-46
2021/10/21 05:32:11;;;;;;;1.97;1.40;;;15.40;99.90;;;;;;4997848;28;20447;-46
2021/10/21 05:34:40;;;;;;;1.50;1.00;;;15.50;99.90;;;;;;4997169;28;20470;-50
2021/10/21 05:37:07;;;;;;;1.27;1.10;;;15.50;99.90;;;;;;4997615;28;20866;-48
2021/10/21 05:39:35;;;;;;;2.13;1.47;;;15.60;99.90;;;;;;4997805;28;20487;-49
2021/10/21 05:42:02;;;;;;;2.23;1.50;;;15.70;99.90;;;;;;4997993;28;20474;-57
2021/10/21 05:44:28;;;;;;;1.60;1.20;;;15.70;99.90;;;;;;4997643;28;20446;-45
2021/10/21 05:46:55;;;;;;;2.17;1.50;;;15.80;99.90;;;;;;4997860;28;20482;-54
2021/10/21 05:49:22;;;;;;;1.97;1.53;;;15.90;99.90;;;;;;4997697;28;20482;-46
2021/10/21 05:51:49;;;;;;;2.00;1.37;;;15.90;99.90;;;;;;4996920;28;20500;-48
2021/10/21 05:54:15;;;;;;;2.40;1.40;;;15.90;99.90;;;;;;4997433;28;20522;-43
2021/10/21 05:56:44;;;;;;;3.20;1.20;;;16.00;99.90;;;;;;4997394;28;20471;-52
2021/10/21 05:59:11;;;;;;;1.70;1.47;;;16.10;99.90;;;;;;4997359;28;20486;-48
2021/10/21 06:01:37;;;;;;;1.87;1.60;;;16.10;99.90;;;;;;4997157;28;20475;-49
2021/10/21 06:04:04;;;;;;;1.50;1.20;;;16.20;99.90;;;;;;4997427;28;20439;-48
2021/10/21 06:06:34;;;;;;;1.23;1.10;;;16.30;99.90;;;;;;4997125;28;20459;-48
2021/10/21 06:09:02;;;;;;;1.50;1.30;;;16.30;99.90;;;;;;4997471;28;20451;-42
2021/10/21 06:11:29;;;;;;;5.47;1.17;;;16.40;99.90;;;;;;4996751;28;20459;-46
2021/10/21 06:13:58;;;;;;;4.20;1.60;;;16.40;99.90;;;;;;4996554;28;20439;-46
2021/10/21 06:16:24;;;;;;;2.37;1.13;;;16.50;99.90;;;;;;4996803;28;20526;-44
2021/10/21 06:18:51;;;;;;;1.70;1.27;;;16.50;99.90;;;;;;4996768;28;20523;-48
2021/10/21 06:21:22;;;;;;;1.30;1.00;;;16.50;99.90;;;;;;4996792;28;20486;-48
2021/10/21 06:23:48;;;;;;;1.30;1.10;;;16.60;99.90;;;;;;4996941;28;20423;-44
2021/10/21 06:26:17;;;;;;;1.23;1.13;;;16.60;99.90;;;;;;4996893;28;20462;-45
2021/10/21 06:28:46;;;;;;;1.50;1.27;;;16.60;99.90;;;;;;4996940;28;20431;-47
2021/10/21 06:31:15;;;;;;;5.73;1.00;;;16.60;99.90;;;;;;4997276;28;20459;-45
2021/10/21 06:33:43;;;;;;;3.23;1.20;;;16.60;99.90;;;;;;4996538;28;20503;-44
2021/10/21 06:36:10;;;;;;;1.37;1.10;;;16.70;99.90;;;;;;4996801;28;20494;-49
2021/10/21 06:38:37;;;;;;;2.00;1.27;;;16.70;99.90;;;;;;4996880;28;20968;-49
2021/10/21 06:41:04;;;;;;;1.20;1.00;;;16.70;99.90;;;;;;4997120;28;20463;-48
2021/10/21 06:43:31;;;;;;;2.50;1.10;;;16.70;99.90;;;;;;4996915;28;20439;-49
2021/10/21 06:45:58;;;;;;;2.00;1.00;;;16.70;99.90;;;;;;4997160;28;20474;-48
2021/10/21 06:48:26;;;;;;;2.10;1.30;;;16.70;99.90;;;;;;4996979;28;20752;-46
2021/10/21 06:50:53;;;;;;;3.00;1.10;;;16.70;99.90;;;;;;4996826;28;20522;-50
2021/10/21 06:53:19;;;;;;;1.20;0.90;;;16.70;99.90;;;;;;4996685;28;20454;-48
2021/10/21 06:55:46;;;;;;;1.43;1.03;;;16.70;99.90;;;;;;4996860;28;20427;-49
2021/10/21 06:58:13;;;;;;;1.40;1.20;;;16.70;99.90;;;;;;4996593;28;20471;-47
2021/10/21 07:00:41;;;;;;;1.33;0.80;;;16.70;99.90;;;;;;4996614;28;20439;-42
2021/10/21 07:03:09;;;;;;;1.10;0.93;;;16.70;99.90;;;;;;4996792;28;20434;-46
2021/10/21 07:05:39;;;;;;;1.80;1.00;;;16.60;99.90;;;;;;4996924;28;20443;-49
2021/10/21 07:08:06;;;;;;;1.37;0.77;;;16.60;99.90;;;;;;4996468;28;20451;-50
2021/10/21 07:10:33;;;;;;;1.50;1.07;;;16.60;99.90;;;;;;4996623;28;20533;-47
2021/10/21 07:13:03;;;;;;;2.53;1.03;;;16.60;99.90;;;;;;4996764;28;20435;-48
2021/10/21 07:15:31;;;;;;;1.87;1.13;;;16.50;99.90;;;;;;4996321;28;20469;-46
2021/10/21 07:17:58;;;;;;;3.93;0.97;;;16.50;99.90;;;;;;4996750;28;20490;-49
2021/10/21 07:20:24;;;;;;;5.23;1.00;;;16.50;99.90;;;;;;4996604;28;20478;-51
2021/10/21 07:22:52;;;;;;;4.10;1.00;;;16.40;99.90;;;;;;4996296;28;20470;-46
2021/10/21 07:25:19;;;;;;;3.00;0.93;;;16.30;99.90;;;;;;4996583;28;20457;-45
2021/10/21 07:27:48;;;;;;;4.60;1.13;;;16.20;99.90;;;;;;4999961;28;20470;-41
2021/10/21 07:30:15;;;;;;;1.93;0.80;;;16.10;99.90;;;;;;4999808;28;20438;-46
2021/10/21 07:32:42;;;;;;;2.57;0.80;;;16.10;99.90;;;;;;4999613;28;20466;-48
2021/10/21 07:35:11;;;;;;;1.30;0.80;;;15.90;99.90;;;;;;4999569;28;20454;-44
2021/10/21 07:37:38;;;;;;;1.10;0.77;;;15.90;99.90;;;;;;4999542;28;20462;-49
2021/10/21 07:40:11;;;;;;;9.53;1.00;;;15.90;99.90;;;;;;4999100;28;20959;-45
2021/10/21 07:42:39;;;;;;;3.97;1.77;;;15.90;99.90;;;;;;4999556;28;20477;-48
2021/10/21 07:45:07;;;;;;;2.03;1.00;;;15.90;99.90;;;;;;4999731;28;20441;-52
2021/10/21 07:47:34;;;;;;;7.67;1.13;;;15.90;99.90;;;;;;4999622;28;20467;-48
2021/10/21 07:50:01;;;;;;;1.40;0.90;;;15.90;99.90;;;;;;4999524;28;20439;-47
2021/10/21 07:52:28;;;;;;;1.40;0.80;;;15.90;99.90;;;;;;4999281;28;20470;-47
2021/10/21 07:54:55;;;;;;;1.53;0.80;;;15.90;99.90;;;;;;4999333;28;20443;-50
2021/10/21 07:57:23;;;;;;;1.93;1.20;;;15.90;99.90;;;;;;4999699;28;20466;-49
2021/10/21 07:59:50;;;;;;;1.50;0.97;;;15.90;99.90;;;;;;4999269;28;20493;-49
2021/10/21 08:02:19;;;;;;;2.07;0.83;;;15.90;99.90;;;;;;4999107;28;20467;-45
2021/10/21 08:04:45;;;;;;;3.17;1.17;;;16.00;99.90;;;;;;4999329;28;20470;-47
2021/10/21 08:07:13;;;;;;;1.67;0.80;;;16.00;99.90;;;;;;4999337;28;20466;-50
2021/10/21 08:09:39;;;;;;;3.90;1.00;;;16.10;99.90;;;;;;4999435;28;20454;-45
2021/10/21 08:12:07;;;;;;;3.00;1.00;;;16.10;99.90;;;;;;4999292;28;20489;-48
2021/10/21 08:14:35;;;;;;;1.10;0.70;;;16.10;99.90;;;;;;4999458;28;20506;-48
2021/10/21 08:17:02;;;;;;;5.27;0.90;;;16.20;99.90;;;;;;4999341;28;20475;-45
2021/10/21 08:19:30;;;;;;;4.20;1.27;;;16.20;99.90;;;;;;4999094;28;20459;-47
2021/10/21 08:21:57;;;;;;;1.63;0.90;;;16.20;99.90;;;;;;4998771;28;20471;-50
2021/10/21 08:24:25;;;;;;;1.20;0.80;;;16.30;99.90;;;;;;4999401;28;20530;-49
2021/10/21 08:26:53;;;;;;;4.10;0.80;;;16.40;99.90;;;;;;4998920;28;20777;-52
2021/10/21 08:29:22;;;;;;;4.70;1.17;;;16.50;99.90;;;;;;4999489;28;20431;-50
2021/10/21 08:31:51;;;;;;;2.67;1.13;;;16.50;99.90;;;;;;4998802;28;20458;-48
2021/10/21 08:34:18;;;;;;;2.33;1.97;;;16.60;99.90;;;;;;4999224;28;20439;-49
2021/10/21 08:36:44;;;;;;;2.03;0.90;;;16.60;99.90;;;;;;4998790;28;20454;-53
2021/10/21 08:39:13;;;;;;;3.90;2.60;;;16.70;99.90;;;;;;4998951;28;20470;-52
2021/10/21 08:41:42;;;;;;;7.43;1.10;;;16.60;99.90;;;;;;4998517;28;20765;-46
2021/10/21 08:44:09;;;;;;;4.70;0.80;;;16.60;99.90;;;;;;4998798;28;20462;-48
2021/10/21 08:46:37;;;;;;;2.97;0.80;;;16.60;99.90;;;;;;4998556;28;20443;-49
2021/10/21 08:49:05;;;;;;;1.50;1.00;;;16.50;99.90;;;;;;4998032;28;20487;-49
2021/10/21 08:51:33;;;;;;;1.20;1.10;;;16.50;99.90;;;;;;4998103;28;20553;-48
2021/10/21 08:54:02;;;;;;;1.63;0.70;;;16.50;99.90;;;;;;4998513;28;20431;-46
2021/10/21 08:56:29;;;;;;;3.83;1.00;;;16.50;99.90;;;;;;4998306;28;20431;-46
2021/10/21 08:58:57;;;;;;;1.43;0.90;;;16.50;99.90;;;;;;4997854;28;20479;-48
2021/10/21 09:01:32;;;;;;;1.67;0.87;;;16.60;99.90;;;;;;4998310;28;20431;-46
2021/10/21 09:04:17;;;;;;;0.90;0.60;;;16.60;99.90;;;;;;4998758;28;20430;-43
2021/10/21 09:09:30;;;;;;;3.97;0.70;;;16.60;99.90;;;;;;4998375;28;20411;-47
2021/10/21 09:12:05;;;;;;;3.23;0.90;;;16.50;99.90;;;;;;4998300;28;20442;-52
2021/10/21 09:14:36;;;;;;;1.80;0.77;;;16.40;99.90;;;;;;4997833;28;20951;-54
2021/10/21 09:17:06;;;;;;;1.57;1.27;;;16.40;99.90;;;;;;4997441;28;20431;-53
2021/10/21 09:19:35;;;;;;;3.30;0.80;;;16.30;99.90;;;;;;4998451;28;20475;-54
2021/10/21 09:22:04;;;;;;;2.30;1.10;;;16.30;99.90;;;;;;4998511;28;20451;-47
2021/10/21 09:24:32;;;;;;;1.00;0.70;;;16.30;99.90;;;;;;4998025;28;20459;-48
2021/10/21 09:27:05;;;;;;;1.67;0.90;;;16.30;99.90;;;;;;4997999;28;20455;-45
2021/10/21 09:29:33;;;;;;;1.10;0.80;;;16.30;99.90;;;;;;4997831;28;20469;-49
2021/10/21 09:32:11;;;;;;;1.83;0.80;;;16.20;99.90;;;;;;4997520;28;20499;-50
2021/10/21 09:34:53;;;;;;;6.80;0.87;;;16.20;99.90;;;;;;4998057;28;20427;-50
2021/10/21 09:37:25;;;;;;;2.23;0.70;;;16.20;99.90;;;;;;4997692;28;20428;-45
2021/10/21 09:39:55;;;;;;;5.13;1.93;;;16.20;99.90;;;;;;4998043;28;20471;-48
2021/10/21 09:42:28;;;;;;;8.63;3.50;;;16.20;99.90;;;;;;4997957;28;20439;-50
2021/10/21 09:45:11;;;;;;;1.83;1.10;;;16.20;99.90;;;;;;4998230;28;20445;-46
2021/10/21 09:47:43;;;;;;;3.03;0.83;;;16.30;99.90;;;;;;4997893;28;20498;-49
2021/10/21 09:50:19;;;;;;;3.83;1.57;;;16.30;99.90;;;;;;4998170;28;20467;-47
2021/10/21 09:53:09;;;;;;;5.90;1.07;;;16.40;99.90;;;;;;4998012;28;20967;-43
2021/10/21 09:55:37;;;;;;;7.70;1.00;;;16.40;99.90;;;;;;4997509;28;20494;-52
2021/10/21 09:58:05;;;;;;;2.10;0.77;;;16.30;99.90;;;;;;4997310;28;20495;-48
2021/10/21 10:00:34;;;;;;;1.50;1.10;;;16.30;99.90;;;;;;4996684;28;20498;-52
2021/10/21 10:03:16;;;;;;;7.97;2.83;;;16.30;99.90;;;;;;4997352;28;20489;-46
2021/10/21 10:05:46;;;;;;;6.20;2.33;;;16.20;99.90;;;;;;4997884;28;20429;-49
2021/10/21 10:08:13;;;;;;;3.57;1.13;;;16.20;99.90;;;;;;4997501;28;20454;-47
2021/10/21 10:10:44;;;;;;;9.40;1.17;;;16.20;99.90;;;;;;4996965;28;20455;-50
2021/10/21 10:13:12;;;;;;;7.43;1.27;;;16.20;99.90;;;;;;4997293;28;20455;-48
2021/10/21 10:15:43;;;;;;;2.37;0.90;;;16.10;99.90;;;;;;4997159;28;20474;-47
2021/10/21 10:18:16;;;;;;;4.03;1.03;;;16.10;99.90;;;;;;4997134;28;20458;-51
2021/10/21 10:20:47;;;;;;;1.93;0.90;;;16.20;99.90;;;;;;4997381;28;20470;-46
2021/10/21 10:23:16;;;;;;;5.10;0.90;;;16.30;99.90;;;;;;4996705;28;20471;-53
2021/10/21 10:25:52;;;;;;;4.83;0.80;;;16.20;99.90;;;;;;4996707;28;20459;-46
2021/10/21 10:28:20;;;;;;;1.87;0.80;;;16.20;99.90;;;;;;4996837;28;20462;-54
2021/10/21 10:30:49;;;;;;;1.03;0.70;;;16.20;99.90;;;;;;4997135;28;20454;-50
2021/10/21 10:33:40;;;;;;;1.83;1.00;;;16.20;99.90;;;;;;4996601;28;20475;-48
2021/10/21 10:36:30;;;;;;;1.43;0.70;;;16.20;99.90;;;;;;4996235;28;20501;-46
2021/10/21 10:38:58;;;;;;;8.63;1.23;;;16.00;99.90;;;;;;4996759;28;20467;-51
2021/10/21 10:41:52;;;;;;;1.40;0.70;;;16.00;99.90;;;;;;4996372;28;20478;-51
2021/10/21 10:44:56;;;;;;;3.37;0.90;;;15.80;99.90;;;;;;4996637;28;20478;-46
2021/10/21 10:47:42;;;;;;;1.70;1.17;;;15.70;99.90;;;;;;4996404;28;20442;-53
2021/10/21 10:50:13;;;;;;;3.53;1.00;;;15.70;99.90;;;;;;4996868;28;20458;-52
2021/10/21 10:52:50;;;;;;;4.10;1.00;;;15.70;99.90;;;;;;4996594;28;20432;-53
2021/10/21 10:55:17;;;;;;;4.60;0.83;;;15.70;99.90;;;;;;4995537;28;20462;-50
2021/10/21 10:57:56;;;;;;;5.07;0.97;;;15.80;99.90;;;;;;4996693;28;20486;-43
2021/10/21 11:00:44;;;;;;;1.10;0.60;;;15.70;99.90;;;;;;4997409;28;20451;-45
2021/10/21 11:03:11;;;;;;;4.57;1.10;;;15.40;99.90;;;;;;5000297;28;20427;-45
2021/10/21 11:05:58;;;;;;;1.00;0.60;;;14.80;99.90;;;;;;4999593;28;20530;-51
2021/10/21 11:08:52;;;;;;;2.20;1.23;;;14.30;99.90;;;;;;4999061;28;20475;-53
2021/10/21 11:11:42;;;;;;;1.30;0.70;;;14.00;99.90;;;;;;4999045;28;20851;-58
2021/10/21 11:14:10;;;;;;;1.00;0.60;;;13.80;99.90;;;;;;4999485;28;20463;-54
2021/10/21 11:16:41;;;;;;;3.00;0.73;;;13.50;99.90;;;;;;4998976;28;20462;-50
2021/10/21 11:19:09;;;;;;;1.10;0.60;;;13.40;99.90;;;;;;4998399;28;20501;-48
2021/10/21 11:21:55;;;;;;;3.93;0.67;;;13.40;99.90;;;;;;4998750;28;20486;-53
2021/10/21 11:25:02;;;;;;;0.97;0.70;;;13.30;99.90;;;;;;4997957;28;20482;-53
2021/10/21 11:27:32;;;;;;;0.90;0.60;;;13.40;99.90;;;;;;4969351;28;20459;-55
2021/10/21 11:30:05;;;;;;;1.00;0.60;;;13.40;99.90;;;;;;4998565;28;20435;-54
2021/10/21 11:32:34;;;;;;;1.10;0.70;;;13.30;99.90;;;;;;4998921;28;20438;-50
2021/10/21 11:35:04;;;;;;;1.30;0.60;;;13.40;99.90;;;;;;4998695;28;20450;-56
2021/10/21 11:37:36;;;;;;;1.10;0.60;;;13.30;99.90;;;;;;4998362;28;20454;-46
2021/10/21 11:40:05;;;;;;;1.00;0.70;;;13.10;99.90;;;;;;4998638;28;20482;-50
2021/10/21 11:42:31;;;;;;;0.90;0.60;;;13.00;99.90;;;;;;4997890;28;20451;-49
2021/10/21 11:45:07;;;;;;;1.10;0.70;;;12.90;99.90;;;;;;4998378;28;20454;-46
2021/10/21 11:47:36;;;;;;;1.17;0.60;;;12.80;99.90;;;;;;4997952;28;20434;-52
2021/10/21 11:50:05;;;;;;;1.00;0.70;;;12.80;99.90;;;;;;4998821;28;20487;-53
2021/10/21 11:52:40;;;;;;;0.90;0.60;;;12.90;99.90;;;;;;4998759;28;20447;-52
2021/10/21 11:55:19;;;;;;;1.33;0.70;;;13.10;99.90;;;;;;4998281;28;20450;-52
2021/10/21 11:57:45;;;;;;;1.97;1.50;;;13.10;99.90;;;;;;4998719;28;20427;-57
2021/10/21 12:00:24;;;;;;;1.00;0.70;;;13.20;99.90;;;;;;4998804;28;20486;-48
2021/10/21 12:02:55;;;;;;;2.60;0.90;;;13.30;99.90;;;;;;4998605;28;20893;-56
2021/10/21 12:05:28;;;;;;;2.40;0.60;;;13.30;99.90;;;;;;4998114;28;20506;-54
2021/10/21 12:07:55;;;;;;;1.83;0.70;;;13.30;99.90;;;;;;4998315;28;20451;-49
2021/10/21 12:10:32;;;;;;;1.20;0.60;;;13.20;99.90;;;;;;4998337;28;20459;-51
2021/10/21 12:13:02;;;;;;;9.83;1.27;;;13.20;99.90;;;;;;4997689;28;20438;-53
2021/10/21 12:15:30;;;;;;;1.63;0.90;;;13.10;99.90;;;;;;4998003;28;20423;-51
2021/10/21 12:17:58;;;;;;;1.00;0.73;;;13.20;99.90;;;;;;4997766;28;20459;-51
2021/10/21 12:20:37;;;;;;;0.97;0.67;;;13.40;99.90;;;;;;4997132;28;20503;-54
2021/10/21 12:23:12;;;;;;;1.43;0.80;;;13.50;99.90;;;;;;4997608;28;20454;-51
2021/10/21 12:25:42;;;;;;;1.53;0.60;;;13.40;99.90;;;;;;4998024;28;20439;-52
2021/10/21 12:28:08;;;;;;;1.20;0.70;;;13.40;99.90;;;;;;4997391;28;20467;-53
2021/10/21 12:30:38;;;;;;;1.30;0.80;;;13.40;99.90;;;;;;4998138;28;20447;-52
2021/10/21 12:33:12;;;;;;;2.13;1.20;;;13.40;99.90;;;;;;4997793;28;20435;-53
2021/10/21 12:35:57;;;;;;;1.10;0.70;;;13.40;99.90;;;;;;4997520;28;20423;-50
2021/10/21 12:38:28;;;;;;;1.70;1.03;;;13.40;99.90;;;;;;4997706;28;20434;-54
2021/10/21 12:41:06;;;;;;;1.43;0.83;;;13.40;99.90;;;;;;4997686;28;20467;-51
2021/10/21 12:43:33;;;;;;;1.03;0.93;;;13.40;99.90;;;;;;4997384;28;20427;-50
2021/10/21 12:46:03;;;;;;;1.00;0.60;;;13.40;99.90;;;;;;4996964;28;20509;-54
2021/10/21 12:48:32;;;;;;;2.60;0.73;;;13.40;99.90;;;;;;4997554;28;20463;-47
2021/10/21 12:51:14;;;;;;;1.40;0.83;;;13.40;99.90;;;;;;4997670;28;20529;-54
2021/10/21 12:53:52;;;;;;;1.33;0.70;;;13.50;99.90;;;;;;4997627;28;20485;-46
2021/10/21 12:56:23;;;;;;;1.10;0.70;;;13.50;99.90;;;;;;4997506;28;20450;-51
2021/10/21 12:59:01;;;;;;;1.87;0.90;;;13.50;99.90;;;;;;4997357;28;20427;-47
2021/10/21 13:01:45;;;;;;;1.27;0.70;;;13.50;99.90;;;;;;4997783;28;20486;-51
2021/10/21 13:04:32;;;;;;;1.00;0.63;;;13.50;99.90;;;;;;4996502;28;20474;-49